createdAt,value
2023-02-06T00:00:52.680Z,5.20
2023-02-06T00:03:20.414Z,5.03
2023-02-06T00:05:58.132Z,5.10
2023-02-06T00:08:25.648Z,5.11
2023-02-06T00:10:53.016Z,4.98
2023-02-06T00:13:20.606Z,5.02
2023-02-06T00:15:47.455Z,5.07
2023-02-06T00:18:14.168Z,4.94
2023-02-06T00:20:40.894Z,4.90
2023-02-06T00:23:07.642Z,4.91
2023-02-06T00:25:34.667Z,5.00
2023-02-06T00:28:01.643Z,4.87
2023-02-06T00:30:28.357Z,5.04
2023-02-06T00:32:55.056Z,5.29
2023-02-06T00:35:21.751Z,5.79
2023-02-06T00:37:48.707Z,5.82
2023-02-06T00:40:15.447Z,5.77
2023-02-06T00:42:42.087Z,5.59
2023-02-06T00:45:09.647Z,5.48
2023-02-06T00:47:36.532Z,5.33
2023-02-06T00:50:04.005Z,5.05
2023-02-06T00:52:30.675Z,5.31
2023-02-06T00:54:57.317Z,5.02
2023-02-06T00:57:23.930Z,5.00
2023-02-06T00:59:50.722Z,5.02
2023-02-06T01:02:17.851Z,4.94
2023-02-06T01:04:44.502Z,4.73
2023-02-06T01:07:11.214Z,4.82
2023-02-06T01:09:37.910Z,5.03
2023-02-06T01:12:04.783Z,4.90
2023-02-06T01:14:31.456Z,5.01
2023-02-06T01:16:58.170Z,5.14
2023-02-06T01:19:25.005Z,5.50
2023-02-06T01:21:51.686Z,5.65
2023-02-06T01:24:18.352Z,5.33
2023-02-06T01:26:45.011Z,5.07
2023-02-06T01:29:11.723Z,5.01
2023-02-06T01:31:40.366Z,4.87
2023-02-06T01:34:08.126Z,4.87
2023-02-06T01:36:35.710Z,4.99
2023-02-06T01:39:02.367Z,4.85
2023-02-06T01:41:29.199Z,4.75
2023-02-06T01:44:10.881Z,4.78
2023-02-06T01:46:39.818Z,4.72
2023-02-06T01:49:09.755Z,4.73
2023-02-06T01:51:36.649Z,4.85
2023-02-06T01:54:07.691Z,4.79
2023-02-06T01:56:43.720Z,4.94
2023-02-06T01:59:12.194Z,4.68
2023-02-06T02:01:39.778Z,4.67
2023-02-06T02:04:11.405Z,5.08
2023-02-06T02:06:40.343Z,4.72
2023-02-06T02:09:07.418Z,4.87
2023-02-06T02:11:38.410Z,4.68
2023-02-06T02:14:10.060Z,4.58
2023-02-06T02:16:58.614Z,4.68
2023-02-06T02:19:59.292Z,4.75
2023-02-06T02:22:34.727Z,4.71
2023-02-06T02:25:28.379Z,4.65
2023-02-06T02:28:10.181Z,4.82
2023-02-06T02:31:07.976Z,4.76
2023-02-06T02:33:59.645Z,4.61
2023-02-06T02:36:29.841Z,4.64
2023-02-06T02:38:59.535Z,4.54
2023-02-06T02:41:45.346Z,4.57
2023-02-06T02:44:43.317Z,4.56
2023-02-06T02:47:14.501Z,4.50
2023-02-06T02:49:44.494Z,4.60
2023-02-06T02:52:11.846Z,4.70
2023-02-06T02:54:38.666Z,4.68
2023-02-06T02:57:30.051Z,4.59
2023-02-06T02:59:59.746Z,5.06
2023-02-06T03:02:37.744Z,4.91
2023-02-06T03:05:11.480Z,4.55
2023-02-06T03:08:13.406Z,4.46
2023-02-06T03:11:05.840Z,4.53
2023-02-06T03:13:48.376Z,4.41
2023-02-06T03:16:18.296Z,4.85
2023-02-06T03:19:10.562Z,4.78
2023-02-06T03:21:39.942Z,4.37
2023-02-06T03:24:24.424Z,4.30
2023-02-06T03:26:56.599Z,4.41
2023-02-06T03:29:24.527Z,4.31
2023-02-06T03:31:56.821Z,4.43
2023-02-06T03:34:53.198Z,4.38
2023-02-06T03:37:21.681Z,4.25
2023-02-06T03:39:48.545Z,4.46
2023-02-06T03:42:16.972Z,4.46
2023-02-06T03:44:50.113Z,4.59
2023-02-06T03:47:19.219Z,4.47
2023-02-06T03:49:50.007Z,4.33
2023-02-06T03:52:22.324Z,4.26
2023-02-06T03:54:53.337Z,4.28
2023-02-06T03:57:22.844Z,4.10
2023-02-06T03:59:49.674Z,4.11
2023-02-06T04:02:17.650Z,4.18
2023-02-06T04:04:45.752Z,4.34
2023-02-06T04:07:25.560Z,4.62
2023-02-06T04:09:52.627Z,4.46
2023-02-06T04:12:19.854Z,4.79
2023-02-06T04:14:47.210Z,5.12
2023-02-06T04:17:18.818Z,4.89
2023-02-06T04:19:53.947Z,4.53
2023-02-06T04:22:20.634Z,4.51
2023-02-06T04:24:47.526Z,5.06
2023-02-06T04:27:15.213Z,4.91
2023-02-06T04:29:41.961Z,4.47
2023-02-06T04:32:08.808Z,4.30
2023-02-06T04:34:38.664Z,4.35
2023-02-06T04:37:06.368Z,4.24
2023-02-06T04:39:33.643Z,4.21
2023-02-06T04:42:00.522Z,4.19
2023-02-06T04:44:27.143Z,4.22
2023-02-06T04:46:53.822Z,4.22
2023-02-06T04:49:20.665Z,4.65
2023-02-06T04:51:47.320Z,4.68
2023-02-06T04:54:15.190Z,4.24
2023-02-06T04:56:41.879Z,4.21
2023-02-06T04:59:08.475Z,4.30
2023-02-06T05:01:35.234Z,4.31
2023-02-06T05:04:02.189Z,4.25
2023-02-06T05:06:29.754Z,4.04
2023-02-06T05:08:56.628Z,4.14
2023-02-06T05:11:23.314Z,4.00
2023-02-06T05:13:49.965Z,4.03
2023-02-06T05:16:17.849Z,4.22
2023-02-06T05:18:45.063Z,4.68
2023-02-06T05:21:12.763Z,4.62
2023-02-06T05:23:39.680Z,4.21
2023-02-06T05:26:06.669Z,4.14
2023-02-06T05:28:36.201Z,4.06
2023-02-06T05:31:04.335Z,4.10
2023-02-06T05:33:31.446Z,3.91
2023-02-06T05:36:06.645Z,3.84
2023-02-06T05:38:34.405Z,3.84
2023-02-06T05:41:02.208Z,3.85
2023-02-06T05:43:29.085Z,3.75
2023-02-06T05:45:55.780Z,3.74
2023-02-06T05:48:22.678Z,3.78
2023-02-06T05:50:49.806Z,3.81
2023-02-06T05:53:17.648Z,3.84
2023-02-06T05:55:44.365Z,3.67
2023-02-06T05:58:11.659Z,3.85
2023-02-06T06:00:38.351Z,3.70
2023-02-06T06:03:05.453Z,3.89
2023-02-06T06:05:32.139Z,3.72
2023-02-06T06:07:58.925Z,3.63
2023-02-06T06:10:25.598Z,3.66
2023-02-06T06:12:52.288Z,3.70
2023-02-06T06:15:18.973Z,3.70
2023-02-06T06:17:45.641Z,3.82
2023-02-06T06:20:12.259Z,3.59
2023-02-06T06:22:39.052Z,3.51
2023-02-06T06:25:06.935Z,3.46
2023-02-06T06:27:33.853Z,3.36
2023-02-06T06:30:00.637Z,3.40
2023-02-06T06:32:27.452Z,3.34
2023-02-06T06:34:54.113Z,3.37
2023-02-06T06:37:20.779Z,3.47
2023-02-06T06:39:47.502Z,3.22
2023-02-06T06:42:14.121Z,3.16
2023-02-06T06:44:40.773Z,3.20
2023-02-06T06:47:07.437Z,3.10
2023-02-06T06:49:34.186Z,3.16
2023-02-06T06:52:00.823Z,3.56
2023-02-06T06:54:27.505Z,3.50
2023-02-06T06:56:54.204Z,3.35
2023-02-06T06:59:20.881Z,3.24
2023-02-06T07:01:48.968Z,3.27
2023-02-06T07:04:15.680Z,3.41
2023-02-06T07:06:42.392Z,3.53
2023-02-06T07:09:09.109Z,3.38
2023-02-06T07:11:35.747Z,3.25
2023-02-06T07:14:04.416Z,3.30
2023-02-06T07:16:31.199Z,3.27
2023-02-06T07:18:57.992Z,3.21
2023-02-06T07:21:24.606Z,3.42
2023-02-06T07:23:51.250Z,3.54
2023-02-06T07:26:17.900Z,3.62
2023-02-06T07:28:44.490Z,3.70
2023-02-06T07:31:11.148Z,3.78
2023-02-06T07:33:37.829Z,3.74
2023-02-06T07:36:04.642Z,3.88
2023-02-06T07:38:31.514Z,4.14
2023-02-06T07:41:04.350Z,3.91
2023-02-06T07:43:31.433Z,3.90
2023-02-06T07:46:03.168Z,4.10
2023-02-06T07:48:30.879Z,4.10
2023-02-06T07:51:03.294Z,4.07
2023-02-06T07:53:30.037Z,4.28
2023-02-06T07:55:56.623Z,4.50
2023-02-06T07:58:23.438Z,4.55
2023-02-06T08:00:50.104Z,4.58
2023-02-06T08:03:16.917Z,5.04
2023-02-06T08:05:43.646Z,4.77
2023-02-06T08:08:10.724Z,4.92
2023-02-06T08:10:40.219Z,5.20
2023-02-06T08:13:07.809Z,5.18
2023-02-06T08:15:35.055Z,5.07
2023-02-06T08:18:01.905Z,5.12
2023-02-06T08:20:28.571Z,5.06
2023-02-06T08:22:55.463Z,5.26
2023-02-06T08:25:22.110Z,5.36
2023-02-06T08:27:53.254Z,4.98
2023-02-06T08:30:20.256Z,5.37
2023-02-06T08:32:47.007Z,5.14
2023-02-06T08:35:14.227Z,5.27
2023-02-06T08:37:40.914Z,5.12
2023-02-06T08:40:08.571Z,5.24
2023-02-06T08:42:36.014Z,5.26
2023-02-06T08:45:03.062Z,5.40
2023-02-06T08:47:29.810Z,5.36
2023-02-06T08:49:57.191Z,5.58
2023-02-06T08:52:24.194Z,5.65
2023-02-06T08:54:52.114Z,5.57
2023-02-06T08:57:18.862Z,5.73
2023-02-06T08:59:45.620Z,5.78
2023-02-06T09:02:12.537Z,5.72
2023-02-06T09:04:39.516Z,5.97
2023-02-06T09:07:06.184Z,6.02
2023-02-06T09:09:32.876Z,6.56
2023-02-06T09:12:03.811Z,6.11
2023-02-06T09:14:31.155Z,6.65
2023-02-06T09:16:58.361Z,6.96
2023-02-06T09:19:26.106Z,6.48
2023-02-06T09:21:53.401Z,6.24
2023-02-06T09:24:20.468Z,6.31
2023-02-06T09:26:59.561Z,6.03
2023-02-06T09:29:29.236Z,6.34
2023-02-06T09:31:57.412Z,6.56
2023-02-06T09:34:26.054Z,7.01
2023-02-06T09:36:54.647Z,6.97
2023-02-06T09:39:21.920Z,7.07
2023-02-06T09:42:12.389Z,7.41
2023-02-06T09:44:44.374Z,6.60
2023-02-06T09:47:32.287Z,7.46
2023-02-06T09:50:13.944Z,7.54
2023-02-06T09:53:11.592Z,7.18
2023-02-06T09:55:47.770Z,6.51
2023-02-06T09:58:26.763Z,6.30
2023-02-06T10:01:00.579Z,6.79
2023-02-06T10:03:27.215Z,7.03
2023-02-06T10:06:09.380Z,6.61
2023-02-06T10:08:36.097Z,6.65
2023-02-06T10:11:11.086Z,6.79
2023-02-06T10:13:57.220Z,6.39
2023-02-06T10:16:42.998Z,6.75
2023-02-06T10:19:21.356Z,6.28
2023-02-06T10:22:02.453Z,7.43
2023-02-06T10:24:35.041Z,7.09
2023-02-06T10:27:04.399Z,7.03
2023-02-06T10:29:34.150Z,6.99
2023-02-06T10:32:17.963Z,7.10
2023-02-06T10:35:03.503Z,6.64
2023-02-06T10:37:36.049Z,6.63
2023-02-06T10:40:02.724Z,7.05
2023-02-06T10:43:02.099Z,7.38
2023-02-06T10:45:43.008Z,6.73
2023-02-06T10:48:18.284Z,6.78
2023-02-06T10:51:07.986Z,6.71
2023-02-06T10:53:38.920Z,6.32
2023-02-06T10:56:13.322Z,6.70
2023-02-06T10:58:50.508Z,6.47
2023-02-06T11:01:26.131Z,6.39
2023-02-06T11:04:04.572Z,6.67
2023-02-06T11:06:32.130Z,6.51
2023-02-06T11:08:58.867Z,6.45
2023-02-06T11:11:31.991Z,6.63
2023-02-06T11:14:11.336Z,6.74
2023-02-06T11:16:38.960Z,6.96
2023-02-06T11:19:21.155Z,7.11
2023-02-06T11:21:51.840Z,7.59
2023-02-06T11:24:22.317Z,7.42
2023-02-06T11:26:53.459Z,7.28
2023-02-06T11:29:24.322Z,8.10
2023-02-06T11:32:03.368Z,7.89
2023-02-06T11:34:37.995Z,7.96
2023-02-06T11:37:07.257Z,7.73
2023-02-06T11:39:38.978Z,6.94
2023-02-06T11:42:28.002Z,7.09
2023-02-06T11:44:54.644Z,7.42
2023-02-06T11:47:33.708Z,7.68
2023-02-06T11:50:13.117Z,7.49
2023-02-06T11:52:42.066Z,7.39
2023-02-06T11:55:21.160Z,7.32
2023-02-06T11:58:20.400Z,7.39
2023-02-06T12:00:52.972Z,7.07
2023-02-06T12:03:33.760Z,7.84
2023-02-06T12:06:12.907Z,7.96
2023-02-06T12:08:45.589Z,8.01
2023-02-06T12:11:21.076Z,7.78
2023-02-06T12:13:53.155Z,7.36
2023-02-06T12:16:21.222Z,7.38
2023-02-06T12:18:52.594Z,7.83
2023-02-06T12:21:48.125Z,7.53
2023-02-06T12:24:28.620Z,7.96
2023-02-06T12:26:57.852Z,7.95
2023-02-06T12:29:27.003Z,8.37
2023-02-06T12:32:08.434Z,8.14
2023-02-06T12:34:53.475Z,8.12
2023-02-06T12:37:31.512Z,8.05
2023-02-06T12:40:01.009Z,8.23
2023-02-06T12:42:47.298Z,8.12
2023-02-06T12:45:46.878Z,7.89
2023-02-06T12:48:35.732Z,8.05
2023-02-06T12:51:17.225Z,7.70
2023-02-06T12:53:56.029Z,7.54
2023-02-06T12:56:22.607Z,7.33
2023-02-06T12:59:13.431Z,7.54
2023-02-06T13:01:55.385Z,7.97
2023-02-06T13:04:25.134Z,8.45
2023-02-06T13:06:59.878Z,8.28
2023-02-06T13:09:54.927Z,7.84
2023-02-06T13:12:23.130Z,7.74
2023-02-06T13:15:08.133Z,8.00
2023-02-06T13:17:37.560Z,8.19
2023-02-06T13:20:09.977Z,8.06
2023-02-06T13:23:16.454Z,7.90
2023-02-06T13:25:47.984Z,7.58
2023-02-06T13:28:21.396Z,7.34
2023-02-06T13:31:20.278Z,7.97
2023-02-06T13:33:56.318Z,7.73
2023-02-06T13:36:45.047Z,7.75
2023-02-06T13:39:23.732Z,8.01
2023-02-06T13:41:51.095Z,8.03
2023-02-06T13:44:23.837Z,7.95
2023-02-06T13:47:09.170Z,7.51
2023-02-06T13:50:00.281Z,7.83
2023-02-06T13:52:35.645Z,8.14
2023-02-06T13:55:21.001Z,7.87
2023-02-06T13:58:05.954Z,8.37
2023-02-06T14:00:38.382Z,7.73
2023-02-06T14:03:18.949Z,7.98
2023-02-06T14:06:14.706Z,7.43
2023-02-06T14:08:59.424Z,7.85
2023-02-06T14:12:17.893Z,7.79
2023-02-06T14:15:08.784Z,7.36
2023-02-06T14:17:59.886Z,7.88
2023-02-06T14:20:44.679Z,7.54
2023-02-06T14:23:11.309Z,7.54
2023-02-06T14:26:03.838Z,7.63
2023-02-06T14:28:39.513Z,7.53
2023-02-06T14:31:36.403Z,7.60
2023-02-06T14:34:26.659Z,7.51
2023-02-06T14:37:27.586Z,7.44
2023-02-06T14:40:04.523Z,7.45
2023-02-06T14:42:43.173Z,7.52
2023-02-06T14:45:40.961Z,7.45
2023-02-06T14:48:39.870Z,7.45
2023-02-06T14:51:08.781Z,7.49
2023-02-06T14:53:37.856Z,7.25
2023-02-06T14:56:23.860Z,7.38
2023-02-06T14:58:51.361Z,7.45
2023-02-06T15:01:18.141Z,6.98
2023-02-06T15:03:46.813Z,7.15
2023-02-06T15:06:24.022Z,7.06
2023-02-06T15:08:51.508Z,7.09
2023-02-06T15:11:24.944Z,7.26
2023-02-06T15:13:55.880Z,7.26
2023-02-06T15:16:22.954Z,7.23
2023-02-06T15:18:49.793Z,7.28
2023-02-06T15:21:19.172Z,7.31
2023-02-06T15:24:04.300Z,7.58
2023-02-06T15:26:56.799Z,7.40
2023-02-06T15:29:26.865Z,7.37
2023-02-06T15:32:04.863Z,7.37
2023-02-06T15:34:32.099Z,7.27
2023-02-06T15:36:58.779Z,7.30
2023-02-06T15:39:26.380Z,7.28
2023-02-06T15:41:53.917Z,7.01
2023-02-06T15:44:34.285Z,7.08
2023-02-06T15:47:05.172Z,7.08
2023-02-06T15:49:34.869Z,6.84
2023-02-06T15:52:02.344Z,7.15
2023-02-06T15:54:29.499Z,7.15
2023-02-06T15:57:01.250Z,6.87
2023-02-06T15:59:30.482Z,6.68
2023-02-06T16:01:59.472Z,6.50
2023-02-06T16:04:32.114Z,6.32
2023-02-06T16:07:25.528Z,6.40
2023-02-06T16:10:04.542Z,6.27
2023-02-06T16:12:42.284Z,6.18
2023-02-06T16:15:21.581Z,6.28
2023-02-06T16:17:48.386Z,6.12
2023-02-06T16:20:39.645Z,6.15
2023-02-06T16:23:27.342Z,6.97
2023-02-06T16:26:12.486Z,7.15
2023-02-06T16:28:45.802Z,7.11
2023-02-06T16:31:16.588Z,6.78
2023-02-06T16:33:49.913Z,6.70
2023-02-06T16:36:18.755Z,6.57
2023-02-06T16:38:54.088Z,6.61
2023-02-06T16:41:37.624Z,6.32
2023-02-06T16:44:10.941Z,6.17
2023-02-06T16:46:37.558Z,6.05
2023-02-06T16:49:20.948Z,6.00
2023-02-06T16:51:50.104Z,5.99
2023-02-06T16:54:28.700Z,5.92
2023-02-06T16:56:58.844Z,6.06
2023-02-06T16:59:25.510Z,6.02
2023-02-06T17:01:52.151Z,5.77
2023-02-06T17:04:18.870Z,5.75
2023-02-06T17:06:45.630Z,5.70
2023-02-06T17:09:17.304Z,5.50
2023-02-06T17:11:44.406Z,5.74
2023-02-06T17:14:11.434Z,5.69
2023-02-06T17:16:38.360Z,5.74
2023-02-06T17:19:05.113Z,5.51
2023-02-06T17:21:33.145Z,5.99
2023-02-06T17:24:00.062Z,5.88
2023-02-06T17:26:27.601Z,5.71
2023-02-06T17:28:54.547Z,5.71
2023-02-06T17:31:21.825Z,5.74
2023-02-06T17:33:48.683Z,5.79
2023-02-06T17:36:19.030Z,5.76
2023-02-06T17:38:45.774Z,5.43
2023-02-06T17:41:12.433Z,5.47
2023-02-06T17:43:39.155Z,5.48
2023-02-06T17:46:06.462Z,5.37
2023-02-06T17:48:36.682Z,5.29
2023-02-06T17:51:05.557Z,5.26
2023-02-06T17:53:32.289Z,5.26
2023-02-06T17:56:07.499Z,5.13
2023-02-06T17:58:35.033Z,5.15
2023-02-06T18:01:01.726Z,5.12
2023-02-06T18:03:28.406Z,5.05
2023-02-06T18:06:02.533Z,4.98
2023-02-06T18:08:29.884Z,5.05
2023-02-06T18:10:56.832Z,6.01
2023-02-06T18:13:24.428Z,4.89
2023-02-06T18:15:53.370Z,4.65
2023-02-06T18:18:20.257Z,4.65
2023-02-06T18:20:47.098Z,4.54
2023-02-06T18:23:19.201Z,4.50
2023-02-06T18:25:46.246Z,4.50
2023-02-06T18:28:17.024Z,4.46
2023-02-06T18:30:45.074Z,4.40
2023-02-06T18:33:12.815Z,4.41
2023-02-06T18:35:41.166Z,4.28
2023-02-06T18:38:09.912Z,4.33
2023-02-06T18:40:40.619Z,3.91
2023-02-06T18:43:07.987Z,4.60
2023-02-06T18:45:37.889Z,4.69
2023-02-06T18:48:06.397Z,4.77
2023-02-06T18:50:35.325Z,4.72
2023-02-06T18:53:02.229Z,4.61
2023-02-06T18:55:28.987Z,4.58
2023-02-06T18:57:55.728Z,4.45
2023-02-06T19:00:23.818Z,4.54
2023-02-06T19:02:50.900Z,4.54
2023-02-06T19:05:17.978Z,4.58
2023-02-06T19:07:52.247Z,4.52
2023-02-06T19:10:20.309Z,4.59
2023-02-06T19:12:47.158Z,4.53
2023-02-06T19:15:15.012Z,4.45
2023-02-06T19:17:42.176Z,4.52
2023-02-06T19:20:10.743Z,4.52
2023-02-06T19:22:38.338Z,4.64
2023-02-06T19:25:10.237Z,4.57
2023-02-06T19:27:38.532Z,4.59
2023-02-06T19:30:07.861Z,4.71
2023-02-06T19:32:36.057Z,4.63
2023-02-06T19:35:03.797Z,4.72
2023-02-06T19:37:30.859Z,4.71
2023-02-06T19:39:57.661Z,4.46
2023-02-06T19:42:24.400Z,4.55
2023-02-06T19:44:57.489Z,4.36
2023-02-06T19:47:24.206Z,4.46
2023-02-06T19:49:52.411Z,4.43
2023-02-06T19:52:20.164Z,4.38
2023-02-06T19:54:47.840Z,4.19
2023-02-06T19:57:15.978Z,4.19
2023-02-06T19:59:43.009Z,4.12
2023-02-06T20:02:14.385Z,4.05
2023-02-06T20:04:41.532Z,4.18
2023-02-06T20:07:08.354Z,4.34
2023-02-06T20:09:36.568Z,4.28
2023-02-06T20:12:03.685Z,4.40
2023-02-06T20:14:30.507Z,4.28
2023-02-06T20:16:57.289Z,4.09
2023-02-06T20:19:26.998Z,4.01
2023-02-06T20:21:56.618Z,4.09
2023-02-06T20:24:26.601Z,3.97
2023-02-06T20:26:58.171Z,3.99
2023-02-06T20:29:34.238Z,3.97
2023-02-06T20:32:01.595Z,3.87
2023-02-06T20:34:28.838Z,3.97
2023-02-06T20:36:55.790Z,3.99
2023-02-06T20:39:23.248Z,3.99
2023-02-06T20:41:50.947Z,3.92
2023-02-06T20:44:18.861Z,3.97
2023-02-06T20:46:46.875Z,3.94
2023-02-06T20:49:16.579Z,3.88
2023-02-06T20:51:43.612Z,3.88
2023-02-06T20:54:13.445Z,4.08
2023-02-06T20:56:40.537Z,3.95
2023-02-06T20:59:08.490Z,3.89
2023-02-06T21:01:35.352Z,3.85
2023-02-06T21:04:05.584Z,3.97
2023-02-06T21:06:33.663Z,3.74
2023-02-06T21:09:01.103Z,4.00
2023-02-06T21:11:30.423Z,4.14
2023-02-06T21:13:59.087Z,4.17
2023-02-06T21:16:27.203Z,4.14
2023-02-06T21:18:54.797Z,4.20
2023-02-06T21:21:22.045Z,4.30
2023-02-06T21:23:49.090Z,4.17
2023-02-06T21:26:19.544Z,4.18
2023-02-06T21:28:46.501Z,4.24
2023-02-06T21:31:19.744Z,4.26
2023-02-06T21:33:47.876Z,4.55
2023-02-06T21:36:14.814Z,4.32
2023-02-06T21:38:41.919Z,4.36
2023-02-06T21:41:12.314Z,4.70
2023-02-06T21:43:39.793Z,4.42
2023-02-06T21:46:06.666Z,4.66
2023-02-06T21:48:34.016Z,4.69
2023-02-06T21:51:14.863Z,4.73
2023-02-06T21:53:42.809Z,5.25
2023-02-06T21:56:14.274Z,5.05
2023-02-06T21:58:40.918Z,4.61
2023-02-06T22:01:09.001Z,4.98
2023-02-06T22:03:36.188Z,4.55
2023-02-06T22:06:08.548Z,4.35
2023-02-06T22:08:36.738Z,4.41
2023-02-06T22:11:11.609Z,4.32
2023-02-06T22:13:38.345Z,4.29
2023-02-06T22:16:05.456Z,4.15
2023-02-06T22:18:32.124Z,4.64
2023-02-06T22:21:22.332Z,4.06
2023-02-06T22:23:50.328Z,4.19
2023-02-06T22:26:18.822Z,4.10
2023-02-06T22:28:45.963Z,4.19
2023-02-06T22:31:18.600Z,4.22
2023-02-06T22:33:46.131Z,4.21
2023-02-06T22:36:15.466Z,4.06
2023-02-06T22:38:43.466Z,3.91
2023-02-06T22:41:16.448Z,4.18
2023-02-06T22:43:44.735Z,4.03
2023-02-06T22:46:18.827Z,3.94
2023-02-06T22:48:45.549Z,3.93
2023-02-06T22:51:12.633Z,4.08
2023-02-06T22:53:40.345Z,3.91
2023-02-06T22:56:29.780Z,4.01
2023-02-06T22:58:58.311Z,4.13
2023-02-06T23:01:29.116Z,3.97
2023-02-06T23:03:57.647Z,4.13
2023-02-06T23:06:25.701Z,4.03
2023-02-06T23:08:52.650Z,4.13
2023-02-06T23:11:19.859Z,4.12
2023-02-06T23:13:46.574Z,4.50
2023-02-06T23:16:13.486Z,4.26
2023-02-06T23:18:40.199Z,4.27
2023-02-06T23:21:11.965Z,4.23
2023-02-06T23:23:41.152Z,4.12
2023-02-06T23:26:10.408Z,4.08
2023-02-06T23:28:37.697Z,4.26
2023-02-06T23:31:05.634Z,4.48
2023-02-06T23:33:32.417Z,4.59
2023-02-06T23:36:07.930Z,4.45
2023-02-06T23:38:34.659Z,4.63
2023-02-06T23:41:11.803Z,4.45
2023-02-06T23:43:38.677Z,4.31
2023-02-06T23:46:07.431Z,4.32
2023-02-06T23:48:34.912Z,4.48
2023-02-06T23:51:01.596Z,4.30
2023-02-06T23:53:28.538Z,4.31
2023-02-06T23:55:55.351Z,4.39
2023-02-06T23:58:22.062Z,4.40
